sensor_id;sensor_type;location;lat;lon;timestamp;pressure;altitude;pressure_sealevel;temperature;humidity
54308;BME280;40208;39.778;2.710;2022-08-01T00:01:40;101433.31;;;26.93;100.00
54308;BME280;40208;39.778;2.710;2022-08-01T00:04:25;101423.59;;;26.90;100.00
54308;BME280;40208;39.778;2.710;2022-08-01T00:07:10;101423.94;;;26.87;100.00
54308;BME280;40208;39.778;2.710;2022-08-01T00:09:55;101387.50;;;26.62;100.00
54308;BME280;40208;39.778;2.710;2022-08-01T00:12:41;101400.34;;;26.70;100.00
54308;BME280;40208;39.778;2.710;2022-08-01T00:15:26;101418.81;;;26.84;100.00
54308;BME280;40208;39.778;2.710;2022-08-01T00:18:11;101418.13;;;26.82;100.00
54308;BME280;40208;39.778;2.710;2022-08-01T00:20:56;101415.03;;;26.77;100.00
54308;BME280;40208;39.778;2.710;2022-08-01T00:23:41;101420.06;;;26.72;100.00
54308;BME280;40208;39.778;2.710;2022-08-01T00:26:26;101413.25;;;26.68;100.00
54308;BME280;40208;39.778;2.710;2022-08-01T00:29:11;101405.56;;;26.63;100.00
54308;BME280;40208;39.778;2.710;2022-08-01T00:31:55;101337.47;;;26.19;100.00
54308;BME280;40208;39.778;2.710;2022-08-01T00:34:40;101403.47;;;26.57;100.00
54308;BME280;40208;39.778;2.710;2022-08-01T00:37:25;101357.59;;;26.26;100.00
54308;BME280;40208;39.778;2.710;2022-08-01T00:40:10;101407.66;;;26.51;100.00
54308;BME280;40208;39.778;2.710;2022-08-01T00:42:54;101402.34;;;26.50;100.00
54308;BME280;40208;39.778;2.710;2022-08-01T00:45:39;101397.09;;;26.48;100.00
54308;BME280;40208;39.778;2.710;2022-08-01T00:48:24;101390.25;;;26.44;100.00
54308;BME280;40208;39.778;2.710;2022-08-01T00:51:10;101398.56;;;26.42;100.00
54308;BME280;40208;39.778;2.710;2022-08-01T00:53:55;101389.69;;;26.40;100.00
54308;BME280;40208;39.778;2.710;2022-08-01T00:56:40;101366.56;;;26.18;100.00
54308;BME280;40208;39.778;2.710;2022-08-01T00:59:26;101400.66;;;26.31;100.00
54308;BME280;40208;39.778;2.710;2022-08-01T01:02:11;101386.69;;;26.26;100.00
54308;BME280;40208;39.778;2.710;2022-08-01T01:04:56;101397.88;;;26.22;100.00
54308;BME280;40208;39.778;2.710;2022-08-01T01:08:04;101394.47;;;26.20;100.00
54308;BME280;40208;39.778;2.710;2022-08-01T01:11:16;101397.19;;;26.20;100.00
54308;BME280;40208;39.778;2.710;2022-08-01T01:14:10;101384.19;;;26.14;100.00
54308;BME280;40208;39.778;2.710;2022-08-01T01:17:00;101397.88;;;26.22;100.00
54308;BME280;40208;39.778;2.710;2022-08-01T01:19:48;101403.63;;;26.19;100.00
54308;BME280;40208;39.778;2.710;2022-08-01T01:22:43;101399.53;;;26.15;100.00
54308;BME280;40208;39.778;2.710;2022-08-01T01:25:46;101395.56;;;26.10;100.00
54308;BME280;40208;39.778;2.710;2022-08-01T01:31:56;101390.03;;;26.01;100.00
54308;BME280;40208;39.778;2.710;2022-08-01T01:34:44;101382.03;;;26.00;100.00
54308;BME280;40208;39.778;2.710;2022-08-01T01:37:31;101387.84;;;26.05;100.00
54308;BME280;40208;39.778;2.710;2022-08-01T01:40:19;101394.00;;;26.07;100.00
54308;BME280;40208;39.778;2.710;2022-08-01T01:43:08;101363.91;;;25.91;100.00
54308;BME280;40208;39.778;2.710;2022-08-01T01:45:54;101390.28;;;26.08;100.00
54308;BME280;40208;39.778;2.710;2022-08-01T01:48:43;101394.06;;;25.97;100.00
54308;BME280;40208;39.778;2.710;2022-08-01T01:51:30;101384.22;;;25.96;100.00
54308;BME280;40208;39.778;2.710;2022-08-01T01:54:15;101385.06;;;25.97;100.00
54308;BME280;40208;39.778;2.710;2022-08-01T01:57:03;101392.13;;;25.90;100.00
54308;BME280;40208;39.778;2.710;2022-08-01T01:59:50;101387.03;;;25.87;100.00
54308;BME280;40208;39.778;2.710;2022-08-01T02:02:36;101377.28;;;25.84;100.00
54308;BME280;40208;39.778;2.710;2022-08-01T02:05:22;101384.81;;;25.90;100.00
54308;BME280;40208;39.778;2.710;2022-08-01T02:08:10;101386.00;;;25.88;100.00
54308;BME280;40208;39.778;2.710;2022-08-01T02:10:56;101393.59;;;25.84;100.00
54308;BME280;40208;39.778;2.710;2022-08-01T02:14:02;101381.63;;;25.77;100.00
54308;BME280;40208;39.778;2.710;2022-08-01T02:16:49;101379.34;;;25.72;100.00
54308;BME280;40208;39.778;2.710;2022-08-01T02:19:34;101385.78;;;25.71;100.00
54308;BME280;40208;39.778;2.710;2022-08-01T02:22:29;101335.50;;;25.39;100.00
54308;BME280;40208;39.778;2.710;2022-08-01T02:25:23;101370.72;;;25.59;100.00
54308;BME280;40208;39.778;2.710;2022-08-01T02:28:17;101376.28;;;25.57;100.00
54308;BME280;40208;39.778;2.710;2022-08-01T02:31:08;101380.16;;;25.55;100.00
54308;BME280;40208;39.778;2.710;2022-08-01T02:34:00;101380.34;;;25.53;100.00
54308;BME280;40208;39.778;2.710;2022-08-01T02:36:51;101379.63;;;25.51;100.00
54308;BME280;40208;39.778;2.710;2022-08-01T02:39:39;101366.69;;;25.35;100.00
54308;BME280;40208;39.778;2.710;2022-08-01T02:42:26;101390.13;;;25.46;100.00
54308;BME280;40208;39.778;2.710;2022-08-01T02:45:13;101381.69;;;25.39;100.00
54308;BME280;40208;39.778;2.710;2022-08-01T02:48:02;101376.84;;;25.33;100.00
54308;BME280;40208;39.778;2.710;2022-08-01T02:50:51;101385.00;;;25.33;100.00
54308;BME280;40208;39.778;2.710;2022-08-01T02:53:38;101380.19;;;25.27;100.00
54308;BME280;40208;39.778;2.710;2022-08-01T02:56:27;101375.63;;;25.28;100.00
54308;BME280;40208;39.778;2.710;2022-08-01T02:59:22;101373.03;;;25.26;100.00
54308;BME280;40208;39.778;2.710;2022-08-01T03:02:11;101375.22;;;25.23;100.00
54308;BME280;40208;39.778;2.710;2022-08-01T03:04:57;101381.81;;;25.20;100.00
54308;BME280;40208;39.778;2.710;2022-08-01T03:07:43;101384.53;;;25.20;100.00
54308;BME280;40208;39.778;2.710;2022-08-01T03:10:29;101379.09;;;25.20;100.00
54308;BME280;40208;39.778;2.710;2022-08-01T03:13:15;101349.94;;;25.03;100.00
54308;BME280;40208;39.778;2.710;2022-08-01T03:16:03;101374.50;;;25.21;100.00
54308;BME280;40208;39.778;2.710;2022-08-01T03:18:51;101384.66;;;25.18;100.00
54308;BME280;40208;39.778;2.710;2022-08-01T03:21:39;101365.97;;;25.06;100.00
54308;BME280;40208;39.778;2.710;2022-08-01T03:24:26;101382.38;;;25.14;100.00
54308;BME280;40208;39.778;2.710;2022-08-01T03:27:13;101378.09;;;25.11;100.00
54308;BME280;40208;39.778;2.710;2022-08-01T03:29:59;101377.69;;;25.06;100.00
54308;BME280;40208;39.778;2.710;2022-08-01T03:32:47;101388.69;;;25.05;100.00
54308;BME280;40208;39.778;2.710;2022-08-01T03:35:44;101382.53;;;25.03;100.00
54308;BME280;40208;39.778;2.710;2022-08-01T03:38:31;101379.81;;;25.03;100.00
54308;BME280;40208;39.778;2.710;2022-08-01T03:41:20;101378.25;;;25.00;100.00
54308;BME280;40208;39.778;2.710;2022-08-01T03:44:10;101379.28;;;24.99;100.00
54308;BME280;40208;39.778;2.710;2022-08-01T03:47:04;101378.41;;;24.98;100.00
54308;BME280;40208;39.778;2.710;2022-08-01T03:49:50;101374.31;;;24.94;100.00
54308;BME280;40208;39.778;2.710;2022-08-01T03:52:38;101349.50;;;24.70;100.00
54308;BME280;40208;39.778;2.710;2022-08-01T03:55:24;101376.34;;;24.83;100.00
54308;BME280;40208;39.778;2.710;2022-08-01T03:58:10;101380.03;;;24.82;100.00
54308;BME280;40208;39.778;2.710;2022-08-01T04:00:57;101385.34;;;24.83;100.00
54308;BME280;40208;39.778;2.710;2022-08-01T04:03:43;101380.75;;;24.84;100.00
54308;BME280;40208;39.778;2.710;2022-08-01T04:06:29;101387.50;;;24.80;100.00
54308;BME280;40208;39.778;2.710;2022-08-01T04:09:14;101388.34;;;24.80;100.00
54308;BME280;40208;39.778;2.710;2022-08-01T04:11:59;101396.78;;;24.77;100.00
54308;BME280;40208;39.778;2.710;2022-08-01T04:14:44;101389.06;;;24.72;100.00
54308;BME280;40208;39.778;2.710;2022-08-01T04:17:29;101388.41;;;24.61;100.00
54308;BME280;40208;39.778;2.710;2022-08-01T04:20:14;101406.09;;;24.65;100.00
54308;BME280;40208;39.778;2.710;2022-08-01T04:23:00;101406.38;;;24.62;100.00
54308;BME280;40208;39.778;2.710;2022-08-01T04:25:45;101360.53;;;24.39;100.00
54308;BME280;40208;39.778;2.710;2022-08-01T04:28:34;101391.81;;;24.53;100.00
54308;BME280;40208;39.778;2.710;2022-08-01T04:31:19;101406.81;;;24.57;100.00
54308;BME280;40208;39.778;2.710;2022-08-01T04:34:06;101387.09;;;24.45;100.00
54308;BME280;40208;39.778;2.710;2022-08-01T04:36:52;101404.25;;;24.55;100.00
54308;BME280;40208;39.778;2.710;2022-08-01T04:39:40;101411.84;;;24.52;100.00
54308;BME280;40208;39.778;2.710;2022-08-01T04:42:26;101411.13;;;24.50;100.00
54308;BME280;40208;39.778;2.710;2022-08-01T04:45:12;101386.09;;;24.37;100.00
54308;BME280;40208;39.778;2.710;2022-08-01T04:47:57;101370.13;;;24.24;100.00
54308;BME280;40208;39.778;2.710;2022-08-01T04:50:42;101411.41;;;24.47;100.00
54308;BME280;40208;39.778;2.710;2022-08-01T04:53:27;101405.25;;;24.45;100.00
54308;BME280;40208;39.778;2.710;2022-08-01T04:56:12;101411.53;;;24.45;100.00
54308;BME280;40208;39.778;2.710;2022-08-01T04:58:57;101410.53;;;24.46;100.00
54308;BME280;40208;39.778;2.710;2022-08-01T05:02:00;101411.53;;;24.45;100.00
54308;BME280;40208;39.778;2.710;2022-08-01T05:04:46;101408.09;;;24.33;100.00
54308;BME280;40208;39.778;2.710;2022-08-01T05:07:30;101405.81;;;24.39;100.00
54308;BME280;40208;39.778;2.710;2022-08-01T05:10:15;101420.22;;;24.39;100.00
54308;BME280;40208;39.778;2.710;2022-08-01T05:13:00;101421.25;;;24.38;100.00
54308;BME280;40208;39.778;2.710;2022-08-01T05:15:45;101416.97;;;24.36;100.00
54308;BME280;40208;39.778;2.710;2022-08-01T05:18:30;101426.13;;;24.34;100.00
54308;BME280;40208;39.778;2.710;2022-08-01T05:21:15;101424.38;;;24.33;100.00
54308;BME280;40208;39.778;2.710;2022-08-01T05:24:00;101430.66;;;24.34;100.00
54308;BME280;40208;39.778;2.710;2022-08-01T05:26:44;101428.97;;;24.33;100.00
54308;BME280;40208;39.778;2.710;2022-08-01T05:29:30;101407.97;;;24.16;100.00
54308;BME280;40208;39.778;2.710;2022-08-01T05:32:15;101434.38;;;24.33;100.00
54308;BME280;40208;39.778;2.710;2022-08-01T05:34:59;101436.09;;;24.34;100.00
54308;BME280;40208;39.778;2.710;2022-08-01T05:37:44;101440.78;;;24.32;100.00
54308;BME280;40208;39.778;2.710;2022-08-01T05:40:29;101438.06;;;24.32;100.00
54308;BME280;40208;39.778;2.710;2022-08-01T05:43:14;101440.38;;;24.27;100.00
54308;BME280;40208;39.778;2.710;2022-08-01T05:45:59;101437.22;;;24.22;100.00
54308;BME280;40208;39.778;2.710;2022-08-01T05:48:45;101448.06;;;24.22;100.00
54308;BME280;40208;39.778;2.710;2022-08-01T05:51:30;101449.50;;;24.16;100.00
54308;BME280;40208;39.778;2.710;2022-08-01T05:54:15;101443.50;;;24.22;100.00
54308;BME280;40208;39.778;2.710;2022-08-01T05:57:00;101449.81;;;24.23;100.00
54308;BME280;40208;39.778;2.710;2022-08-01T05:59:46;101446.94;;;24.24;100.00
54308;BME280;40208;39.778;2.710;2022-08-01T06:02:31;101446.22;;;24.22;100.00
54308;BME280;40208;39.778;2.710;2022-08-01T06:05:15;101445.94;;;24.16;100.00
54308;BME280;40208;39.778;2.710;2022-08-01T06:08:00;101427.22;;;24.12;100.00
54308;BME280;40208;39.778;2.710;2022-08-01T06:10:45;101448.06;;;24.31;100.00
54308;BME280;40208;39.778;2.710;2022-08-01T06:13:30;101448.06;;;24.41;100.00
54308;BME280;40208;39.778;2.710;2022-08-01T06:16:15;101447.25;;;24.50;100.00
54308;BME280;40208;39.778;2.710;2022-08-01T06:19:00;101448.81;;;24.53;100.00
54308;BME280;40208;39.778;2.710;2022-08-01T06:21:45;101450.69;;;24.52;100.00
54308;BME280;40208;39.778;2.710;2022-08-01T06:24:30;101449.41;;;24.57;100.00
54308;BME280;40208;39.778;2.710;2022-08-01T06:27:15;101450.53;;;24.64;100.00
54308;BME280;40208;39.778;2.710;2022-08-01T06:30:00;101451.81;;;24.69;100.00
54308;BME280;40208;39.778;2.710;2022-08-01T06:32:45;101455.50;;;24.78;100.00
54308;BME280;40208;39.778;2.710;2022-08-01T06:35:31;101418.69;;;24.66;100.00
54308;BME280;40208;39.778;2.710;2022-08-01T06:38:16;101455.91;;;24.93;100.00
54308;BME280;40208;39.778;2.710;2022-08-01T06:41:01;101449.28;;;25.05;100.00
54308;BME280;40208;39.778;2.710;2022-08-01T06:43:46;101449.13;;;25.16;100.00
54308;BME280;40208;39.778;2.710;2022-08-01T06:46:31;101430.84;;;25.18;100.00
54308;BME280;40208;39.778;2.710;2022-08-01T06:49:16;101451.66;;;25.37;100.00
54308;BME280;40208;39.778;2.710;2022-08-01T06:52:01;101446.47;;;25.44;100.00
54308;BME280;40208;39.778;2.710;2022-08-01T06:54:47;101420.03;;;25.36;100.00
54308;BME280;40208;39.778;2.710;2022-08-01T06:57:32;101442.94;;;25.62;100.00
54308;BME280;40208;39.778;2.710;2022-08-01T07:00:19;101446.63;;;25.70;100.00
54308;BME280;40208;39.778;2.710;2022-08-01T07:03:06;101434.84;;;25.79;100.00
54308;BME280;40208;39.778;2.710;2022-08-01T07:05:51;101446.66;;;25.88;100.00
54308;BME280;40208;39.778;2.710;2022-08-01T07:08:36;101424.78;;;25.90;100.00
54308;BME280;40208;39.778;2.710;2022-08-01T07:11:23;101446.72;;;26.06;100.00
54308;BME280;40208;39.778;2.710;2022-08-01T07:14:07;101459.78;;;26.20;100.00
54308;BME280;40208;39.778;2.710;2022-08-01T07:16:52;101454.25;;;26.30;100.00
54308;BME280;40208;39.778;2.710;2022-08-01T07:19:37;101454.50;;;26.37;100.00
54308;BME280;40208;39.778;2.710;2022-08-01T07:22:22;101454.53;;;26.45;100.00
54308;BME280;40208;39.778;2.710;2022-08-01T07:25:08;101459.78;;;26.56;100.00
54308;BME280;40208;39.778;2.710;2022-08-01T07:27:52;101459.00;;;26.64;100.00
54308;BME280;40208;39.778;2.710;2022-08-01T07:30:37;101454.47;;;26.73;100.00
54308;BME280;40208;39.778;2.710;2022-08-01T07:33:22;101468.13;;;26.81;100.00
54308;BME280;40208;39.778;2.710;2022-08-01T07:36:07;101427.88;;;26.67;100.00
54308;BME280;40208;39.778;2.710;2022-08-01T07:38:52;101472.00;;;26.96;100.00
54308;BME280;40208;39.778;2.710;2022-08-01T07:41:37;101464.66;;;27.15;100.00
54308;BME280;40208;39.778;2.710;2022-08-01T07:44:21;101476.22;;;27.17;100.00
54308;BME280;40208;39.778;2.710;2022-08-01T07:47:06;101482.34;;;27.19;100.00
54308;BME280;40208;39.778;2.710;2022-08-01T07:49:52;101468.50;;;27.30;100.00
54308;BME280;40208;39.778;2.710;2022-08-01T07:52:42;101475.00;;;27.37;100.00
54308;BME280;40208;39.778;2.710;2022-08-01T07:55:27;101300.91;;;26.39;100.00
54308;BME280;40208;39.778;2.710;2022-08-01T07:58:12;101478.84;;;27.53;100.00
54308;BME280;40208;39.778;2.710;2022-08-01T08:00:57;101452.25;;;27.55;100.00
54308;BME280;40208;39.778;2.710;2022-08-01T08:03:42;101474.81;;;27.73;100.00
54308;BME280;40208;39.778;2.710;2022-08-01T08:06:27;101380.22;;;27.23;100.00
54308;BME280;40208;39.778;2.710;2022-08-01T08:09:12;101372.41;;;27.28;100.00
54308;BME280;40208;39.778;2.710;2022-08-01T08:11:57;101475.94;;;27.97;100.00
54308;BME280;40208;39.778;2.710;2022-08-01T08:14:41;101478.72;;;28.05;100.00
54308;BME280;40208;39.778;2.710;2022-08-01T08:17:27;101477.03;;;28.12;100.00
54308;BME280;40208;39.778;2.710;2022-08-01T08:20:12;101130.81;;;26.09;100.00
54308;BME280;40208;39.778;2.710;2022-08-01T08:22:57;101461.31;;;28.14;100.00
54308;BME280;40208;39.778;2.710;2022-08-01T08:25:42;101479.94;;;28.35;100.00
54308;BME280;40208;39.778;2.710;2022-08-01T08:28:27;101479.28;;;28.41;100.00
54308;BME280;40208;39.778;2.710;2022-08-01T08:31:12;101478.47;;;28.49;100.00
54308;BME280;40208;39.778;2.710;2022-08-01T08:33:57;101483.75;;;28.59;100.00
54308;BME280;40208;39.778;2.710;2022-08-01T08:36:42;101477.09;;;28.61;100.00
54308;BME280;40208;39.778;2.710;2022-08-01T08:39:27;101484.25;;;28.70;100.00
54308;BME280;40208;39.778;2.710;2022-08-01T08:42:14;101490.75;;;28.78;100.00
54308;BME280;40208;39.778;2.710;2022-08-01T08:44:59;101490.91;;;28.84;100.00
54308;BME280;40208;39.778;2.710;2022-08-01T08:47:45;101475.72;;;28.82;100.00
54308;BME280;40208;39.778;2.710;2022-08-01T08:50:31;101486.81;;;28.88;100.00
54308;BME280;40208;39.778;2.710;2022-08-01T08:53:18;101489.19;;;29.00;100.00
54308;BME280;40208;39.778;2.710;2022-08-01T08:56:03;101490.22;;;29.07;100.00
54308;BME280;40208;39.778;2.710;2022-08-01T08:58:52;101499.09;;;29.09;100.00
54308;BME280;40208;39.778;2.710;2022-08-01T09:01:36;101487.31;;;29.08;100.00
54308;BME280;40208;39.778;2.710;2022-08-01T09:04:22;101488.66;;;29.21;100.00
54308;BME280;40208;39.778;2.710;2022-08-01T09:07:09;101488.34;;;29.24;100.00
54308;BME280;40208;39.778;2.710;2022-08-01T09:09:56;101492.41;;;29.28;100.00
54308;BME280;40208;39.778;2.710;2022-08-01T09:13:01;101487.81;;;29.28;100.00
54308;BME280;40208;39.778;2.710;2022-08-01T09:15:52;101498.88;;;29.35;100.00
54308;BME280;40208;39.778;2.710;2022-08-01T09:18:41;101490.34;;;29.38;100.00
54308;BME280;40208;39.778;2.710;2022-08-01T09:21:27;101500.25;;;29.39;100.00
54308;BME280;40208;39.778;2.710;2022-08-01T09:24:14;101498.81;;;29.51;100.00
54308;BME280;40208;39.778;2.710;2022-08-01T09:27:00;101492.03;;;29.47;100.00
54308;BME280;40208;39.778;2.710;2022-08-01T09:29:45;101501.56;;;29.51;100.00
54308;BME280;40208;39.778;2.710;2022-08-01T09:32:30;101503.97;;;29.54;100.00
54308;BME280;40208;39.778;2.710;2022-08-01T09:35:29;101504.59;;;29.65;100.00
54308;BME280;40208;39.778;2.710;2022-08-01T09:38:20;101504.09;;;29.69;100.00
54308;BME280;40208;39.778;2.710;2022-08-01T09:41:06;101505.25;;;29.75;100.00
54308;BME280;40208;39.778;2.710;2022-08-01T09:43:51;101471.47;;;29.59;100.00
54308;BME280;40208;39.778;2.710;2022-08-01T09:46:48;101509.38;;;29.79;100.00
54308;BME280;40208;39.778;2.710;2022-08-01T09:49:35;101500.63;;;29.84;100.00
54308;BME280;40208;39.778;2.710;2022-08-01T09:52:23;101506.78;;;29.86;100.00
54308;BME280;40208;39.778;2.710;2022-08-01T09:55:08;101505.34;;;29.90;100.00
54308;BME280;40208;39.778;2.710;2022-08-01T09:57:57;101477.19;;;29.81;100.00
54308;BME280;40208;39.778;2.710;2022-08-01T10:00:58;101494.38;;;29.98;100.00
54308;BME280;40208;39.778;2.710;2022-08-01T10:03:44;101493.16;;;30.00;100.00
54308;BME280;40208;39.778;2.710;2022-08-01T10:06:29;101496.44;;;29.96;100.00
54308;BME280;40208;39.778;2.710;2022-08-01T10:09:15;101495.22;;;29.98;100.00
54308;BME280;40208;39.778;2.710;2022-08-01T10:12:12;101495.22;;;29.98;100.00
54308;BME280;40208;39.778;2.710;2022-08-01T10:14:57;101492.13;;;30.01;100.00
54308;BME280;40208;39.778;2.710;2022-08-01T10:17:58;101479.94;;;30.12;100.00
54308;BME280;40208;39.778;2.710;2022-08-01T10:20:45;101488.63;;;30.16;100.00
54308;BME280;40208;39.778;2.710;2022-08-01T10:23:38;101479.84;;;30.29;100.00
54308;BME280;40208;39.778;2.710;2022-08-01T10:26:25;101480.16;;;30.34;100.00
54308;BME280;40208;39.778;2.710;2022-08-01T10:29:10;101479.59;;;30.38;100.00
54308;BME280;40208;39.778;2.710;2022-08-01T10:31:55;101478.94;;;30.36;100.00
54308;BME280;40208;39.778;2.710;2022-08-01T10:34:40;101469.69;;;30.37;100.00
54308;BME280;40208;39.778;2.710;2022-08-01T10:37:26;101472.53;;;30.44;100.00
54308;BME280;40208;39.778;2.710;2022-08-01T10:40:14;101466.22;;;30.43;100.00
54308;BME280;40208;39.778;2.710;2022-08-01T10:43:00;101488.53;;;30.55;100.00
54308;BME280;40208;39.778;2.710;2022-08-01T10:45:46;101473.44;;;30.59;100.00
54308;BME280;40208;39.778;2.710;2022-08-01T10:48:43;101444.03;;;30.53;100.00
54308;BME280;40208;39.778;2.710;2022-08-01T10:51:29;101465.63;;;30.71;100.00
54308;BME280;40208;39.778;2.710;2022-08-01T10:54:14;101446.47;;;30.71;100.00
54308;BME280;40208;39.778;2.710;2022-08-01T10:56:59;101465.88;;;30.84;100.00
54308;BME280;40208;39.778;2.710;2022-08-01T10:59:51;101462.56;;;30.89;100.00
54308;BME280;40208;39.778;2.710;2022-08-01T11:02:36;101463.25;;;30.91;100.00
54308;BME280;40208;39.778;2.710;2022-08-01T11:05:25;101429.47;;;30.76;100.00
54308;BME280;40208;39.778;2.710;2022-08-01T11:08:20;101459.56;;;30.99;100.00
54308;BME280;40208;39.778;2.710;2022-08-01T11:11:06;101445.94;;;30.91;100.00
54308;BME280;40208;39.778;2.710;2022-08-01T11:14:04;101453.91;;;31.00;100.00
54308;BME280;40208;39.778;2.710;2022-08-01T11:16:56;101431.28;;;30.98;100.00
54308;BME280;40208;39.778;2.710;2022-08-01T11:20:11;101455.63;;;31.16;100.00
54308;BME280;40208;39.778;2.710;2022-08-01T11:28:30;101457.91;;;31.27;100.00
54308;BME280;40208;39.778;2.710;2022-08-01T11:34:01;101421.00;;;31.15;100.00
54308;BME280;40208;39.778;2.710;2022-08-01T11:36:46;101450.78;;;31.33;100.00
54308;BME280;40208;39.778;2.710;2022-08-01T11:39:31;101433.84;;;31.30;100.00
54308;BME280;40208;39.778;2.710;2022-08-01T11:42:19;101400.78;;;31.16;100.00
54308;BME280;40208;39.778;2.710;2022-08-01T11:45:05;101416.09;;;31.25;100.00
54308;BME280;40208;39.778;2.710;2022-08-01T11:47:51;101438.31;;;31.45;100.00
54308;BME280;40208;39.778;2.710;2022-08-01T11:50:36;101432.25;;;31.50;100.00
54308;BME280;40208;39.778;2.710;2022-08-01T11:53:21;101433.78;;;31.53;100.00
54308;BME280;40208;39.778;2.710;2022-08-01T11:56:06;101431.69;;;31.55;100.00
54308;BME280;40208;39.778;2.710;2022-08-01T11:58:58;101394.31;;;31.39;100.00
54308;BME280;40208;39.778;2.710;2022-08-01T12:01:44;101424.97;;;31.57;100.00
54308;BME280;40208;39.778;2.710;2022-08-01T12:04:53;101412.28;;;31.56;100.00
54308;BME280;40208;39.778;2.710;2022-08-01T12:07:39;101386.06;;;31.39;100.00
54308;BME280;40208;39.778;2.710;2022-08-01T12:10:29;101407.66;;;31.57;100.00
54308;BME280;40208;39.778;2.710;2022-08-01T12:13:16;101376.16;;;31.38;100.00
54308;BME280;40208;39.778;2.710;2022-08-01T12:16:07;101397.91;;;31.54;100.00
54308;BME280;40208;39.778;2.710;2022-08-01T12:18:52;101411.50;;;31.62;100.00
54308;BME280;40208;39.778;2.710;2022-08-01T12:21:38;101400.53;;;31.62;100.00
54308;BME280;40208;39.778;2.710;2022-08-01T12:24:22;101395.53;;;31.66;100.00
54308;BME280;40208;39.778;2.710;2022-08-01T12:27:09;101393.16;;;31.63;100.00
54308;BME280;40208;39.778;2.710;2022-08-01T12:29:56;101388.44;;;31.57;100.00
54308;BME280;40208;39.778;2.710;2022-08-01T12:32:43;101393.88;;;31.72;100.00
54308;BME280;40208;39.778;2.710;2022-08-01T12:35:29;101391.72;;;31.67;100.00
54308;BME280;40208;39.778;2.710;2022-08-01T12:38:16;101356.28;;;31.51;100.00
54308;BME280;40208;39.778;2.710;2022-08-01T12:41:02;101395.78;;;31.71;100.00
54308;BME280;40208;39.778;2.710;2022-08-01T12:43:48;101393.63;;;31.66;100.00
54308;BME280;40208;39.778;2.710;2022-08-01T12:46:33;101391.53;;;31.68;100.00
54308;BME280;40208;39.778;2.710;2022-08-01T12:49:18;101309.69;;;31.21;100.00
54308;BME280;40208;39.778;2.710;2022-08-01T12:52:04;101377.25;;;31.58;100.00
54308;BME280;40208;39.778;2.710;2022-08-01T12:57:47;101399.38;;;31.72;100.00
54308;BME280;40208;39.778;2.710;2022-08-01T13:00:38;101389.44;;;31.71;100.00
54308;BME280;40208;39.778;2.710;2022-08-01T13:03:28;101369.03;;;31.58;100.00
54308;BME280;40208;39.778;2.710;2022-08-01T13:06:14;101369.03;;;31.58;100.00
54308;BME280;40208;39.778;2.710;2022-08-01T13:09:07;101381.88;;;31.73;100.00
54308;BME280;40208;39.778;2.710;2022-08-01T13:11:53;101393.50;;;31.75;100.00
54308;BME280;40208;39.778;2.710;2022-08-01T13:14:40;101390.13;;;31.73;100.00
54308;BME280;40208;39.778;2.710;2022-08-01T13:17:34;101389.25;;;31.72;100.00
54308;BME280;40208;39.778;2.710;2022-08-01T13:20:32;101397.03;;;31.68;100.00
54308;BME280;40208;39.778;2.710;2022-08-01T13:23:19;101395.31;;;31.67;100.00
54308;BME280;40208;39.778;2.710;2022-08-01T13:26:04;101377.25;;;31.58;100.00
54308;BME280;40208;39.778;2.710;2022-08-01T13:29:04;101384.53;;;31.66;100.00
54308;BME280;40208;39.778;2.710;2022-08-01T13:31:49;101387.94;;;31.68;100.00
54308;BME280;40208;39.778;2.710;2022-08-01T13:34:34;101393.44;;;31.68;100.00
54308;BME280;40208;39.778;2.710;2022-08-01T13:37:19;101394.72;;;31.72;100.00
54308;BME280;40208;39.778;2.710;2022-08-01T13:40:05;101383.97;;;31.71;100.00
54308;BME280;40208;39.778;2.710;2022-08-01T13:42:50;101386.97;;;31.76;100.00
54308;BME280;40208;39.778;2.710;2022-08-01T13:45:35;101371.84;;;31.65;100.00
54308;BME280;40208;39.778;2.710;2022-08-01T13:48:20;101388.47;;;31.78;100.00
54308;BME280;40208;39.778;2.710;2022-08-01T13:51:05;101375.72;;;31.71;100.00
54308;BME280;40208;39.778;2.710;2022-08-01T13:53:50;101376.25;;;31.81;100.00
54308;BME280;40208;39.778;2.710;2022-08-01T13:56:35;101379.25;;;31.86;100.00
54308;BME280;40208;39.778;2.710;2022-08-01T13:59:20;101384.31;;;31.82;100.00
54308;BME280;40208;39.778;2.710;2022-08-01T14:02:05;101374.69;;;31.72;100.00
54308;BME280;40208;39.778;2.710;2022-08-01T14:04:50;101384.00;;;31.77;100.00
54308;BME280;40208;39.778;2.710;2022-08-01T14:07:34;101377.50;;;31.78;100.00
54308;BME280;40208;39.778;2.710;2022-08-01T14:10:19;101381.34;;;31.84;100.00
54308;BME280;40208;39.778;2.710;2022-08-01T14:13:04;101352.63;;;31.65;100.00
54308;BME280;40208;39.778;2.710;2022-08-01T14:15:49;101380.50;;;31.83;100.00
54308;BME280;40208;39.778;2.710;2022-08-01T14:18:34;101371.81;;;31.80;100.00
54308;BME280;40208;39.778;2.710;2022-08-01T14:21:19;101373.50;;;31.81;100.00
54308;BME280;40208;39.778;2.710;2022-08-01T14:24:03;101382.41;;;31.83;100.00
54308;BME280;40208;39.778;2.710;2022-08-01T14:26:49;101372.09;;;31.85;100.00
54308;BME280;40208;39.778;2.710;2022-08-01T14:29:34;101364.22;;;31.82;100.00
54308;BME280;40208;39.778;2.710;2022-08-01T14:32:18;101352.59;;;31.80;100.00
54308;BME280;40208;39.778;2.710;2022-08-01T14:35:05;101369.34;;;31.85;100.00
54308;BME280;40208;39.778;2.710;2022-08-01T14:37:50;101363.19;;;31.83;100.00